Lilly Bolten — A8TJ5 — position and weather

sailwx.info

Track history (hours):
 
Tides and Currents Weather Stations Pressure Air Temp Water Temp Dewpoint Dewpoint Depression Visibility Wind Speed Wind Dir Waves Ship Positions

Lilly Bolten

Last reported at 2018-Feb-06 04:05 UTC. Time now 2018-Feb-21 05:54 UTC.
Position N 27°42' W 015°20'.
Warning: this ship's position is 15 days out of date.

Length 180 m; draft 6.4 m.

Type: Cargo ship. MMSI: 636091829.

Date/timePositionNaut miles runAvg speedWind from/ knotsBaromVisibWave heightAir tempDewpointWater temp
2018-Feb-06 04:05N 27°42' W 015°20'213.9
2018-Feb-06 03:58N 27°43' W 015°19'613.8
2018-Feb-06 03:30N 27°48' W 015°15'713.5
2018-Feb-06 03:00N 27°55' W 015°14'612.8
2018-Feb-06 02:30N 28°01' W 015°16'11 9.0
2018-Feb-06 01:20N 28°08' W 015°25'0 0.0
2018-Feb-06 00:53N 28°08' W 015°25'0 0.0
2018-Feb-06 00:23N 28°08' W 015°25'0 0.0
2018-Feb-05 23:53N 28°08' W 015°25'0 0.0
2018-Feb-05 23:20N 28°08' W 015°25'0 0.0
2018-Feb-05 22:53N 28°08' W 015°25'0 0.0
2018-Feb-05 22:23N 28°08' W 015°25'0 0.0
2018-Feb-05 21:53N 28°08' W 015°25'0 0.0
2018-Feb-05 21:26N 28°08' W 015°25'0 0.0
2018-Feb-05 20:56N 28°08' W 015°25'0 0.0
2018-Feb-05 20:26N 28°08' W 015°25'0 0.0
2018-Feb-05 19:56N 28°08' W 015°25'0 0.0
2018-Feb-05 19:27N 28°08' W 015°25'0 1.0
2018-Feb-05 19:00N 28°08' W 015°25'2 3.8
2018-Feb-05 18:30N 28°07' W 015°23'2 4.2
2018-Feb-05 18:00N 28°07' W 015°21'4 8.1
2018-Feb-05 17:30N 28°09' W 015°17'612.7
2018-Feb-05 17:00N 28°13' W 015°11'713.6
2018-Feb-05 16:30N 28°17' W 015°05'713.8
2018-Feb-05 16:00N 28°21' W 014°58'713.2
2018-Feb-05 15:30N 28°26' W 014°54'714.3
2018-Feb-05 15:00N 28°33' W 014°51'  
2018-Feb-01 07:26N 49°38' W 003°51'10 8.9
2018-Feb-01 06:20N 49°43' W 003°38'3 8.4
2018-Feb-01 06:00N 49°45' W 003°34'5 8.4
2018-Feb-01 05:28N 49°47' W 003°28'4 8.4
2018-Feb-01 05:00N 49°49' W 003°23'4 8.4
2018-Feb-01 04:30N 49°51' W 003°17'5 9.5
2018-Feb-01 04:00N 49°53' W 003°11'1111.4
2018-Feb-01 03:00N 49°58' W 002°55'713.2
2018-Feb-01 02:29N 49°59' W 002°44'713.7
2018-Feb-01 01:58N 50°01' W 002°34'1913.8
2018-Feb-01 00:36N 50°03' W 002°04'113.9
2018-Feb-01 00:30N 50°02' W 002°02'713.3
2018-Feb-01 00:00N 50°02' W 001°52'1211.7
2018-Jan-31 23:00N 49°59' W 001°34'510.3
2018-Jan-31 22:30N 49°58' W 001°26'14 9.0
2018-Jan-31 21:00N 49°56' W 001°06'4 8.2
2018-Jan-31 20:30N 49°54' W 001°00'4 8.2
2018-Jan-31 20:00N 49°52' W 000°55'4 8.4
2018-Jan-31 19:30N 49°49' W 000°50'4 8.6
2018-Jan-31 19:00N 49°47' W 000°44'5 9.3
2018-Jan-31 18:30N 49°44' W 000°38'5 9.9
2018-Jan-31 18:00N 49°41' W 000°32'611.0
2018-Jan-31 17:30N 49°38' W 000°25'510.6
2018-Jan-31 17:00N 49°35' W 000°18'1 2.1
2018-Jan-31 16:28N 49°35' W 000°16'0 0.2
2018-Jan-31 15:58N 49°35' W 000°16'0 0.0
2018-Jan-31 15:25N 49°35' W 000°16'0 0.1
2018-Jan-31 14:58N 49°35' W 000°16'0 0.1
2018-Jan-31 14:28N 49°35' W 000°16'0 0.1
2018-Jan-31 12:58N 49°35' W 000°16'0 0.1
2018-Jan-31 12:28N 49°35' W 000°16'0 0.0
2018-Jan-31 11:58N 49°35' W 000°16'0 0.1
2018-Jan-31 11:28N 49°35' W 000°16'0 0.0
2018-Jan-31 10:58N 49°35' W 000°16'0 0.0
2018-Jan-31 10:28N 49°35' W 000°16'0 0.1
2018-Jan-31 09:58N 49°35' W 000°16'0 0.0
2018-Jan-31 09:28N 49°35' W 000°16'0 0.0
2018-Jan-31 08:58N 49°35' W 000°16'0 0.1
2018-Jan-31 08:28N 49°35' W 000°16'0 0.1
2018-Jan-31 07:58N 49°35' W 000°16'0 0.0
2018-Jan-31 07:28N 49°35' W 000°16'0 0.0
2018-Jan-31 06:58N 49°35' W 000°16'0 0.0
2018-Jan-31 06:28N 49°35' W 000°16'0 0.0
2018-Jan-31 05:55N 49°35' W 000°16'0 0.0
2018-Jan-31 05:28N 49°35' W 000°16'0 0.1
2018-Jan-31 04:58N 49°35' W 000°16'0 0.0
2018-Jan-31 04:28N 49°35' W 000°16'0 0.0
2018-Jan-31 03:58N 49°35' W 000°16'0 0.1
2018-Jan-31 03:28N 49°35' W 000°16'0 0.0
2018-Jan-31 02:58N 49°35' W 000°16'0 0.0
2018-Jan-31 02:28N 49°35' W 000°16'0 0.0
2018-Jan-31 01:58N 49°35' W 000°16'0 0.0
2018-Jan-31 01:28N 49°35' W 000°16'0 0.0
2018-Jan-31 00:58N 49°35' W 000°16'0 0.0
2018-Jan-30 23:58N 49°35' W 000°16'0 0.0
2018-Jan-30 23:28N 49°35' W 000°16'0 0.0
2018-Jan-30 22:58N 49°35' W 000°16'0 0.0
2018-Jan-30 22:28N 49°35' W 000°16'0 0.0
2018-Jan-30 21:28N 49°35' W 000°16'0 0.0
2018-Jan-30 20:58N 49°35' W 000°16'0 0.0
2018-Jan-30 20:28N 49°35' W 000°16'0 0.0
2018-Jan-30 19:55N 49°35' W 000°16'0 0.0
2018-Jan-30 19:28N 49°35' W 000°16'0 0.0
2018-Jan-30 18:55N 49°35' W 000°16'0 0.0
2018-Jan-30 18:28N 49°35' W 000°16'0 0.0
2018-Jan-30 17:52N 49°35' W 000°16'0 0.0
2018-Jan-30 17:28N 49°35' W 000°16'0 0.2
2018-Jan-30 16:58N 49°35' W 000°16'0 0.4
2018-Jan-30 16:28N 49°35' W 000°17'0 0.0
2018-Jan-30 15:58N 49°35' W 000°17'0 0.0
2018-Jan-30 15:28N 49°35' W 000°17'0 0.0
2018-Jan-30 14:58N 49°35' W 000°17'0 0.0
2018-Jan-30 14:28N 49°35' W 000°17'0 0.0
2018-Jan-30 13:28N 49°35' W 000°17'0 0.0
2018-Jan-30 12:58N 49°35' W 000°17'0 0.0
2018-Jan-30 12:25N 49°35' W 000°17'0 0.0
2018-Jan-30 11:58N 49°35' W 000°17'0 0.1
2018-Jan-30 11:28N 49°35' W 000°17'0 0.2
2018-Jan-30 10:28N 49°35' W 000°16'0 0.0
2018-Jan-30 09:28N 49°35' W 000°16'0 0.0
2018-Jan-30 08:58N 49°35' W 000°16'0 0.0
2018-Jan-30 08:28N 49°35' W 000°16'0 0.0
2018-Jan-30 07:58N 49°35' W 000°16'0 0.0
2018-Jan-30 07:28N 49°35' W 000°16'0 0.0
2018-Jan-30 06:58N 49°35' W 000°16'0 0.0
2018-Jan-30 06:28N 49°35' W 000°16'0 0.1
2018-Jan-30 05:58N 49°35' W 000°16'0 0.0
2018-Jan-30 05:28N 49°35' W 000°16'0 0.1
2018-Jan-30 04:58N 49°35' W 000°16'0 0.1
2018-Jan-30 04:28N 49°35' W 000°16'0 0.1
2018-Jan-30 03:58N 49°35' W 000°17'0 0.1
2018-Jan-30 03:28N 49°35' W 000°17'0 0.0
2018-Jan-30 02:58N 49°35' W 000°17'0 0.0
2018-Jan-30 02:28N 49°35' W 000°17'0 0.0
2018-Jan-30 01:58N 49°35' W 000°17'0 0.0
2018-Jan-30 01:28N 49°35' W 000°17'0 0.0
2018-Jan-30 00:58N 49°35' W 000°17'0 0.0
2018-Jan-30 00:28N 49°35' W 000°17'0 0.0
2018-Jan-29 23:58N 49°35' W 000°17'0 0.0
2018-Jan-29 23:28N 49°35' W 000°17'0 0.2
2018-Jan-29 22:58N 49°35' W 000°16'0 0.2
2018-Jan-29 22:28N 49°35' W 000°16'0 0.0
2018-Jan-29 21:58N 49°35' W 000°16'0 0.1
2018-Jan-29 21:28N 49°35' W 000°16'0 0.1
2018-Jan-29 20:58N 49°35' W 000°16'0 0.1
2018-Jan-29 20:26N 49°35' W 000°16'2 5.6
2018-Jan-29 20:00N 49°34' W 000°13'5 9.4
2018-Jan-29 19:30N 49°33' W 000°06'4 7.3
2018-Jan-29 19:01N 49°31' W 000°02'5 9.8
2018-Jan-29 18:31N 49°29' E 000°05'3 6.5
2018-Jan-29 18:01N 49°29' E 000°10'0 0.0
2018-Jan-29 17:31N 49°29' E 000°10'0 0.0
2018-Jan-29 17:01N 49°29' E 000°10'1 2.6
2018-Jan-29 16:31N 49°28' E 000°12'2 3.0
2018-Jan-29 15:59N 49°28' E 000°15'0 0.0
2018-Jan-29 15:29N 49°28' E 000°15'0 0.0
2018-Jan-29 14:59N 49°28' E 000°15'0 0.0
2018-Jan-29 14:29N 49°28' E 000°15'0 0.0
2018-Jan-29 13:59N 49°28' E 000°15'0 0.0
2018-Jan-29 13:29N 49°28' E 000°15'0 0.0
2018-Jan-29 12:59N 49°28' E 000°15'0 0.0
2018-Jan-29 12:29N 49°28' E 000°15'0 0.0
2018-Jan-29 11:59N 49°28' E 000°15'0 0.0
2018-Jan-29 11:26N 49°28' E 000°15'0 0.0
2018-Jan-29 10:59N 49°28' E 000°15'0 0.0
2018-Jan-29 10:29N 49°28' E 000°15'0 0.0
2018-Jan-29 09:59N 49°28' E 000°15'0 0.0
2018-Jan-29 09:29N 49°28' E 000°15'0 0.0
2018-Jan-29 08:59N 49°28' E 000°15'0 0.0
2018-Jan-29 08:29N 49°28' E 000°15'0 0.0
2018-Jan-29 07:59N 49°28' E 000°15'0 0.0
2018-Jan-29 07:26N 49°28' E 000°15'0 0.0
2018-Jan-29 06:59N 49°28' E 000°15'0 0.0
2018-Jan-29 06:29N 49°28' E 000°15'0 0.0
2018-Jan-29 05:59N 49°28' E 000°15'0 0.0
2018-Jan-29 05:26N 49°28' E 000°15'0 0.0
2018-Jan-29 04:59N 49°28' E 000°15'0 0.0
2018-Jan-29 04:29N 49°28' E 000°15'0 0.0
2018-Jan-29 03:59N 49°28' E 000°15'0 0.0
2018-Jan-29 03:29N 49°28' E 000°15'0 0.0
2018-Jan-29 02:59N 49°28' E 000°15'0 0.0
2018-Jan-29 02:29N 49°28' E 000°15'0 0.0
2018-Jan-29 01:59N 49°28' E 000°15'0 0.0
2018-Jan-29 01:29N 49°28' E 000°15'0 0.0
2018-Jan-29 00:59N 49°28' E 000°15'0 0.0
2018-Jan-29 00:29N 49°28' E 000°15'0 0.0
2018-Jan-28 23:59N 49°28' E 000°15'0 0.0
2018-Jan-28 23:29N 49°28' E 000°15'0 0.0
2018-Jan-28 22:59N 49°28' E 000°15'0 0.0
2018-Jan-28 22:29N 49°28' E 000°15'0 0.0
2018-Jan-28 21:59N 49°28' E 000°15'0 0.0
2018-Jan-28 21:29N 49°28' E 000°15'0 0.0
2018-Jan-28 20:59N 49°28' E 000°15'0 0.0
2018-Jan-28 20:29N 49°28' E 000°15'0 0.0
2018-Jan-28 19:59N 49°28' E 000°15'0 0.0
2018-Jan-28 19:29N 49°28' E 000°15'0 0.0
2018-Jan-28 18:59N 49°28' E 000°15'0 0.0
2018-Jan-28 18:29N 49°28' E 000°15'0 0.0
2018-Jan-28 17:59N 49°28' E 000°15'0 0.0
2018-Jan-28 17:29N 49°28' E 000°15'0 0.0
2018-Jan-28 16:59N 49°28' E 000°15'0 0.0
2018-Jan-28 16:29N 49°28' E 000°15'0 0.0
2018-Jan-28 15:59N 49°28' E 000°15'0 0.0
2018-Jan-28 15:29N 49°28' E 000°15'0 0.0
2018-Jan-28 14:59N 49°28' E 000°15'0 0.0
2018-Jan-28 14:29N 49°28' E 000°15'0 0.0
2018-Jan-28 13:59N 49°28' E 000°15'0 0.0
2018-Jan-28 13:29N 49°28' E 000°15'0 0.0
2018-Jan-28 12:59N 49°28' E 000°15'0 0.0
2018-Jan-28 12:29N 49°28' E 000°15'0 0.0
2018-Jan-28 11:59N 49°28' E 000°15'0 0.0
2018-Jan-28 11:29N 49°28' E 000°15'0 0.0
2018-Jan-28 10:59N 49°28' E 000°15'0 0.0
2018-Jan-28 10:29N 49°28' E 000°15'0 0.0
2018-Jan-28 09:59N 49°28' E 000°15'0 0.0
2018-Jan-28 09:29N 49°28' E 000°15'0 0.0
2018-Jan-28 08:59N 49°28' E 000°15'0 0.0
2018-Jan-28 08:29N 49°28' E 000°15'0 0.0
2018-Jan-28 07:59N 49°28' E 000°15'0 0.0
2018-Jan-28 07:29N 49°28' E 000°15'0 0.0
2018-Jan-28 06:59N 49°28' E 000°15'0 0.0
2018-Jan-28 06:29N 49°28' E 000°15'0 0.0
2018-Jan-28 05:59N 49°28' E 000°15'0 0.0
2018-Jan-28 05:29N 49°28' E 000°15'0 0.0
2018-Jan-28 04:59N 49°28' E 000°15'0 0.0
2018-Jan-28 04:29N 49°28' E 000°15'0 0.0
2018-Jan-28 03:59N 49°28' E 000°15'0 0.0
2018-Jan-28 03:29N 49°28' E 000°15'0 0.0
2018-Jan-28 02:59N 49°28' E 000°15'0 0.0
2018-Jan-28 02:29N 49°28' E 000°15'0 0.0
2018-Jan-28 01:59N 49°28' E 000°15'0 0.0
2018-Jan-28 01:29N 49°28' E 000°15'0 0.0
2018-Jan-28 00:59N 49°28' E 000°15'0 0.0
2018-Jan-28 00:29N 49°28' E 000°15'0 0.0
2018-Jan-27 23:59N 49°28' E 000°15'0 0.0
2018-Jan-27 23:29N 49°28' E 000°15'0 0.0
2018-Jan-27 22:59N 49°28' E 000°15'0 0.0
2018-Jan-27 22:29N 49°28' E 000°15'0 0.0
2018-Jan-27 21:59N 49°28' E 000°15'0 0.0
2018-Jan-27 21:29N 49°28' E 000°15'0 0.0
2018-Jan-27 20:59N 49°28' E 000°15'0 0.0
2018-Jan-27 20:29N 49°28' E 000°15'0 0.0
2018-Jan-27 19:59N 49°28' E 000°15'0 0.0
2018-Jan-27 19:29N 49°28' E 000°15'0 0.0
2018-Jan-27 18:59N 49°28' E 000°15'0 0.0
2018-Jan-27 18:29N 49°28' E 000°15'0 0.0
2018-Jan-27 17:59N 49°28' E 000°15'0 0.0
2018-Jan-27 17:29N 49°28' E 000°15'0 0.0
2018-Jan-27 16:59N 49°28' E 000°15'0 0.0
2018-Jan-27 16:29N 49°28' E 000°15'0 0.0
2018-Jan-27 15:59N 49°28' E 000°15'0 0.0
2018-Jan-27 15:29N 49°28' E 000°15'0 0.0
2018-Jan-27 14:59N 49°28' E 000°15'0 0.0
2018-Jan-27 14:29N 49°28' E 000°15'0 0.0
2018-Jan-27 13:59N 49°28' E 000°15'0 0.0
2018-Jan-27 13:29N 49°28' E 000°15'0 0.0
2018-Jan-27 12:59N 49°28' E 000°15'0 0.0
2018-Jan-27 12:29N 49°28' E 000°15'0 0.0
2018-Jan-27 11:59N 49°28' E 000°15'0 0.0
2018-Jan-27 11:29N 49°28' E 000°15'0 0.0
2018-Jan-27 10:59N 49°28' E 000°15'0 0.0
2018-Jan-27 10:29N 49°28' E 000°15'0 0.0
2018-Jan-27 09:59N 49°28' E 000°15'0 0.0
2018-Jan-27 09:29N 49°28' E 000°15'0 0.0
2018-Jan-27 08:59N 49°28' E 000°15'0 0.0
2018-Jan-27 08:29N 49°28' E 000°15'0 0.0
2018-Jan-27 07:59N 49°28' E 000°15'0 0.0
2018-Jan-27 07:29N 49°28' E 000°15'0 0.0
2018-Jan-27 06:59N 49°28' E 000°15'0 0.0
2018-Jan-27 06:29N 49°28' E 000°15'0 0.0
2018-Jan-27 05:59N 49°28' E 000°15'0 0.0
2018-Jan-27 05:29N 49°28' E 000°15'0 0.0
2018-Jan-27 04:59N 49°28' E 000°15'0 0.0
2018-Jan-27 04:29N 49°28' E 000°15'  
Track history (hours):
 
Tides and Currents Weather Stations Pressure Air Temp Water Temp Dewpoint Dewpoint Depression Visibility Wind Speed Wind Dir Waves Ship Positions

Lilly Bolten

Last reported at 2018-Feb-06 04:05 UTC. Time now 2018-Feb-21 05:54 UTC.
Position N 27°42' W 015°20'.
Warning: this ship's position is 15 days out of date.

Length 180 m; draft 6.4 m.

Type: Cargo ship. MMSI: 636091829.

Date/timePositionNaut miles runAvg speedWind from/ knotsBaromVisibWave heightAir tempDewpointWater temp
2018-Feb-06 04:05N 27°42' W 015°20'213.9
2018-Feb-06 03:58N 27°43' W 015°19'613.8
2018-Feb-06 03:30N 27°48' W 015°15'713.5
2018-Feb-06 03:00N 27°55' W 015°14'612.8
2018-Feb-06 02:30N 28°01' W 015°16'11 9.0
2018-Feb-06 01:20N 28°08' W 015°25'0 0.0
2018-Feb-06 00:53N 28°08' W 015°25'0 0.0
2018-Feb-06 00:23N 28°08' W 015°25'0 0.0
2018-Feb-05 23:53N 28°08' W 015°25'0 0.0
2018-Feb-05 23:20N 28°08' W 015°25'0 0.0
2018-Feb-05 22:53N 28°08' W 015°25'0 0.0
2018-Feb-05 22:23N 28°08' W 015°25'0 0.0
2018-Feb-05 21:53N 28°08' W 015°25'0 0.0
2018-Feb-05 21:26N 28°08' W 015°25'0 0.0
2018-Feb-05 20:56N 28°08' W 015°25'0 0.0
2018-Feb-05 20:26N 28°08' W 015°25'0 0.0
2018-Feb-05 19:56N 28°08' W 015°25'0 0.0
2018-Feb-05 19:27N 28°08' W 015°25'0 1.0
2018-Feb-05 19:00N 28°08' W 015°25'2 3.8
2018-Feb-05 18:30N 28°07' W 015°23'2 4.2
2018-Feb-05 18:00N 28°07' W 015°21'4 8.1
2018-Feb-05 17:30N 28°09' W 015°17'612.7
2018-Feb-05 17:00N 28°13' W 015°11'713.6
2018-Feb-05 16:30N 28°17' W 015°05'713.8
2018-Feb-05 16:00N 28°21' W 014°58'713.2
2018-Feb-05 15:30N 28°26' W 014°54'714.3
2018-Feb-05 15:00N 28°33' W 014°51'  
2018-Feb-01 07:26N 49°38' W 003°51'10 8.9
2018-Feb-01 06:20N 49°43' W 003°38'3 8.4
2018-Feb-01 06:00N 49°45' W 003°34'5 8.4
2018-Feb-01 05:28N 49°47' W 003°28'4 8.4
2018-Feb-01 05:00N 49°49' W 003°23'4 8.4
2018-Feb-01 04:30N 49°51' W 003°17'5 9.5
2018-Feb-01 04:00N 49°53' W 003°11'1111.4
2018-Feb-01 03:00N 49°58' W 002°55'713.2
2018-Feb-01 02:29N 49°59' W 002°44'713.7
2018-Feb-01 01:58N 50°01' W 002°34'1913.8
2018-Feb-01 00:36N 50°03' W 002°04'113.9
2018-Feb-01 00:30N 50°02' W 002°02'713.3
2018-Feb-01 00:00N 50°02' W 001°52'1211.7
2018-Jan-31 23:00N 49°59' W 001°34'510.3
2018-Jan-31 22:30N 49°58' W 001°26'14 9.0
2018-Jan-31 21:00N 49°56' W 001°06'4 8.2
2018-Jan-31 20:30N 49°54' W 001°00'4 8.2
2018-Jan-31 20:00N 49°52' W 000°55'4 8.4
2018-Jan-31 19:30N 49°49' W 000°50'4 8.6
2018-Jan-31 19:00N 49°47' W 000°44'5 9.3
2018-Jan-31 18:30N 49°44' W 000°38'5 9.9
2018-Jan-31 18:00N 49°41' W 000°32'611.0
2018-Jan-31 17:30N 49°38' W 000°25'510.6
2018-Jan-31 17:00N 49°35' W 000°18'1 2.1
2018-Jan-31 16:28N 49°35' W 000°16'0 0.2
2018-Jan-31 15:58N 49°35' W 000°16'0 0.0
2018-Jan-31 15:25N 49°35' W 000°16'0 0.1
2018-Jan-31 14:58N 49°35' W 000°16'0 0.1
2018-Jan-31 14:28N 49°35' W 000°16'0 0.1
2018-Jan-31 12:58N 49°35' W 000°16'0 0.1
2018-Jan-31 12:28N 49°35' W 000°16'0 0.0
2018-Jan-31 11:58N 49°35' W 000°16'0 0.1
2018-Jan-31 11:28N 49°35' W 000°16'0 0.0
2018-Jan-31 10:58N 49°35' W 000°16'0 0.0
2018-Jan-31 10:28N 49°35' W 000°16'0 0.1
2018-Jan-31 09:58N 49°35' W 000°16'0 0.0
2018-Jan-31 09:28N 49°35' W 000°16'0 0.0
2018-Jan-31 08:58N 49°35' W 000°16'0 0.1
2018-Jan-31 08:28N 49°35' W 000°16'0 0.1
2018-Jan-31 07:58N 49°35' W 000°16'0 0.0
2018-Jan-31 07:28N 49°35' W 000°16'0 0.0
2018-Jan-31 06:58N 49°35' W 000°16'0 0.0
2018-Jan-31 06:28N 49°35' W 000°16'0 0.0
2018-Jan-31 05:55N 49°35' W 000°16'0 0.0
2018-Jan-31 05:28N 49°35' W 000°16'0 0.1
2018-Jan-31 04:58N 49°35' W 000°16'0 0.0
2018-Jan-31 04:28N 49°35' W 000°16'0 0.0
2018-Jan-31 03:58N 49°35' W 000°16'0 0.1
2018-Jan-31 03:28N 49°35' W 000°16'0 0.0
2018-Jan-31 02:58N 49°35' W 000°16'0 0.0
2018-Jan-31 02:28N 49°35' W 000°16'0 0.0
2018-Jan-31 01:58N 49°35' W 000°16'0 0.0
2018-Jan-31 01:28N 49°35' W 000°16'0 0.0
2018-Jan-31 00:58N 49°35' W 000°16'0 0.0
2018-Jan-30 23:58N 49°35' W 000°16'0 0.0
2018-Jan-30 23:28N 49°35' W 000°16'0 0.0
2018-Jan-30 22:58N 49°35' W 000°16'0 0.0
2018-Jan-30 22:28N 49°35' W 000°16'0 0.0
2018-Jan-30 21:28N 49°35' W 000°16'0 0.0
2018-Jan-30 20:58N 49°35' W 000°16'0 0.0
2018-Jan-30 20:28N 49°35' W 000°16'0 0.0
2018-Jan-30 19:55N 49°35' W 000°16'0 0.0
2018-Jan-30 19:28N 49°35' W 000°16'0 0.0
2018-Jan-30 18:55N 49°35' W 000°16'0 0.0
2018-Jan-30 18:28N 49°35' W 000°16'0 0.0
2018-Jan-30 17:52N 49°35' W 000°16'0 0.0
2018-Jan-30 17:28N 49°35' W 000°16'0 0.2
2018-Jan-30 16:58N 49°35' W 000°16'0 0.4
2018-Jan-30 16:28N 49°35' W 000°17'0 0.0
2018-Jan-30 15:58N 49°35' W 000°17'0 0.0
2018-Jan-30 15:28N 49°35' W 000°17'0 0.0
2018-Jan-30 14:58N 49°35' W 000°17'0 0.0
2018-Jan-30 14:28N 49°35' W 000°17'0 0.0
2018-Jan-30 13:28N 49°35' W 000°17'0 0.0
2018-Jan-30 12:58N 49°35' W 000°17'0 0.0
2018-Jan-30 12:25N 49°35' W 000°17'0 0.0
2018-Jan-30 11:58N 49°35' W 000°17'0 0.1
2018-Jan-30 11:28N 49°35' W 000°17'0 0.2
2018-Jan-30 10:28N 49°35' W 000°16'0 0.0
2018-Jan-30 09:28N 49°35' W 000°16'0 0.0
2018-Jan-30 08:58N 49°35' W 000°16'0 0.0
2018-Jan-30 08:28N 49°35' W 000°16'0 0.0
2018-Jan-30 07:58N 49°35' W 000°16'0 0.0
2018-Jan-30 07:28N 49°35' W 000°16'0 0.0
2018-Jan-30 06:58N 49°35' W 000°16'0 0.0
2018-Jan-30 06:28N 49°35' W 000°16'0 0.1
2018-Jan-30 05:58N 49°35' W 000°16'0 0.0
2018-Jan-30 05:28N 49°35' W 000°16'0 0.1
2018-Jan-30 04:58N 49°35' W 000°16'0 0.1
2018-Jan-30 04:28N 49°35' W 000°16'0 0.1
2018-Jan-30 03:58N 49°35' W 000°17'0 0.1
2018-Jan-30 03:28N 49°35' W 000°17'0 0.0
2018-Jan-30 02:58N 49°35' W 000°17'0 0.0
2018-Jan-30 02:28N 49°35' W 000°17'0 0.0
2018-Jan-30 01:58N 49°35' W 000°17'0 0.0
2018-Jan-30 01:28N 49°35' W 000°17'0 0.0
2018-Jan-30 00:58N 49°35' W 000°17'0 0.0
2018-Jan-30 00:28N 49°35' W 000°17'0 0.0
2018-Jan-29 23:58N 49°35' W 000°17'0 0.0
2018-Jan-29 23:28N 49°35' W 000°17'0 0.2
2018-Jan-29 22:58N 49°35' W 000°16'0 0.2
2018-Jan-29 22:28N 49°35' W 000°16'0 0.0
2018-Jan-29 21:58N 49°35' W 000°16'0 0.1
2018-Jan-29 21:28N 49°35' W 000°16'0 0.1
2018-Jan-29 20:58N 49°35' W 000°16'0 0.1
2018-Jan-29 20:26N 49°35' W 000°16'2 5.6
2018-Jan-29 20:00N 49°34' W 000°13'5 9.4
2018-Jan-29 19:30N 49°33' W 000°06'4 7.3
2018-Jan-29 19:01N 49°31' W 000°02'5 9.8
2018-Jan-29 18:31N 49°29' E 000°05'3 6.5
2018-Jan-29 18:01N 49°29' E 000°10'0 0.0
2018-Jan-29 17:31N 49°29' E 000°10'0 0.0
2018-Jan-29 17:01N 49°29' E 000°10'1 2.6
2018-Jan-29 16:31N 49°28' E 000°12'2 3.0
2018-Jan-29 15:59N 49°28' E 000°15'0 0.0
2018-Jan-29 15:29N 49°28' E 000°15'0 0.0
2018-Jan-29 14:59N 49°28' E 000°15'0 0.0
2018-Jan-29 14:29N 49°28' E 000°15'0 0.0
2018-Jan-29 13:59N 49°28' E 000°15'0 0.0
2018-Jan-29 13:29N 49°28' E 000°15'0 0.0
2018-Jan-29 12:59N 49°28' E 000°15'0 0.0
2018-Jan-29 12:29N 49°28' E 000°15'0 0.0
2018-Jan-29 11:59N 49°28' E 000°15'0 0.0
2018-Jan-29 11:26N 49°28' E 000°15'0 0.0
2018-Jan-29 10:59N 49°28' E 000°15'0 0.0
2018-Jan-29 10:29N 49°28' E 000°15'0 0.0
2018-Jan-29 09:59N 49°28' E 000°15'0 0.0
2018-Jan-29 09:29N 49°28' E 000°15'0 0.0
2018-Jan-29 08:59N 49°28' E 000°15'0 0.0
2018-Jan-29 08:29N 49°28' E 000°15'0 0.0
2018-Jan-29 07:59N 49°28' E 000°15'0 0.0
2018-Jan-29 07:26N 49°28' E 000°15'0 0.0
2018-Jan-29 06:59N 49°28' E 000°15'0 0.0
2018-Jan-29 06:29N 49°28' E 000°15'0 0.0
2018-Jan-29 05:59N 49°28' E 000°15'0 0.0
2018-Jan-29 05:26N 49°28' E 000°15'0 0.0
2018-Jan-29 04:59N 49°28' E 000°15'0 0.0
2018-Jan-29 04:29N 49°28' E 000°15'0 0.0
2018-Jan-29 03:59N 49°28' E 000°15'0 0.0
2018-Jan-29 03:29N 49°28' E 000°15'0 0.0
2018-Jan-29 02:59N 49°28' E 000°15'0 0.0
2018-Jan-29 02:29N 49°28' E 000°15'0 0.0
2018-Jan-29 01:59N 49°28' E 000°15'0 0.0
2018-Jan-29 01:29N 49°28' E 000°15'0 0.0
2018-Jan-29 00:59N 49°28' E 000°15'0 0.0
2018-Jan-29 00:29N 49°28' E 000°15'0 0.0
2018-Jan-28 23:59N 49°28' E 000°15'0 0.0
2018-Jan-28 23:29N 49°28' E 000°15'0 0.0
2018-Jan-28 22:59N 49°28' E 000°15'0 0.0
2018-Jan-28 22:29N 49°28' E 000°15'0 0.0
2018-Jan-28 21:59N 49°28' E 000°15'0 0.0
2018-Jan-28 21:29N 49°28' E 000°15'0 0.0
2018-Jan-28 20:59N 49°28' E 000°15'0 0.0
2018-Jan-28 20:29N 49°28' E 000°15'0 0.0
2018-Jan-28 19:59N 49°28' E 000°15'0 0.0
2018-Jan-28 19:29N 49°28' E 000°15'0 0.0
2018-Jan-28 18:59N 49°28' E 000°15'0 0.0
2018-Jan-28 18:29N 49°28' E 000°15'0 0.0
2018-Jan-28 17:59N 49°28' E 000°15'0 0.0
2018-Jan-28 17:29N 49°28' E 000°15'0 0.0
2018-Jan-28 16:59N 49°28' E 000°15'0 0.0
2018-Jan-28 16:29N 49°28' E 000°15'0 0.0
2018-Jan-28 15:59N 49°28' E 000°15'0 0.0
2018-Jan-28 15:29N 49°28' E 000°15'0 0.0
2018-Jan-28 14:59N 49°28' E 000°15'0 0.0
2018-Jan-28 14:29N 49°28' E 000°15'0 0.0
2018-Jan-28 13:59N 49°28' E 000°15'0 0.0
2018-Jan-28 13:29N 49°28' E 000°15'0 0.0
2018-Jan-28 12:59N 49°28' E 000°15'0 0.0
2018-Jan-28 12:29N 49°28' E 000°15'0 0.0
2018-Jan-28 11:59N 49°28' E 000°15'0 0.0
2018-Jan-28 11:29N 49°28' E 000°15'0 0.0
2018-Jan-28 10:59N 49°28' E 000°15'0 0.0
2018-Jan-28 10:29N 49°28' E 000°15'0 0.0
2018-Jan-28 09:59N 49°28' E 000°15'0 0.0
2018-Jan-28 09:29N 49°28' E 000°15'0 0.0
2018-Jan-28 08:59N 49°28' E 000°15'0 0.0
2018-Jan-28 08:29N 49°28' E 000°15'0 0.0
2018-Jan-28 07:59N 49°28' E 000°15'0 0.0
2018-Jan-28 07:29N 49°28' E 000°15'0 0.0
2018-Jan-28 06:59N 49°28' E 000°15'0 0.0
2018-Jan-28 06:29N 49°28' E 000°15'0 0.0
2018-Jan-28 05:59N 49°28' E 000°15'0 0.0
2018-Jan-28 05:29N 49°28' E 000°15'0 0.0
2018-Jan-28 04:59N 49°28' E 000°15'0 0.0
2018-Jan-28 04:29N 49°28' E 000°15'0 0.0
2018-Jan-28 03:59N 49°28' E 000°15'0 0.0
2018-Jan-28 03:29N 49°28' E 000°15'0 0.0
2018-Jan-28 02:59N 49°28' E 000°15'0 0.0
2018-Jan-28 02:29N 49°28' E 000°15'0 0.0
2018-Jan-28 01:59N 49°28' E 000°15'0 0.0
2018-Jan-28 01:29N 49°28' E 000°15'0 0.0
2018-Jan-28 00:59N 49°28' E 000°15'0 0.0
2018-Jan-28 00:29N 49°28' E 000°15'0 0.0
2018-Jan-27 23:59N 49°28' E 000°15'0 0.0
2018-Jan-27 23:29N 49°28' E 000°15'0 0.0
2018-Jan-27 22:59N 49°28' E 000°15'0 0.0
2018-Jan-27 22:29N 49°28' E 000°15'0 0.0
2018-Jan-27 21:59N 49°28' E 000°15'0 0.0
2018-Jan-27 21:29N 49°28' E 000°15'0 0.0
2018-Jan-27 20:59N 49°28' E 000°15'0 0.0
2018-Jan-27 20:29N 49°28' E 000°15'0 0.0
2018-Jan-27 19:59N 49°28' E 000°15'0 0.0
2018-Jan-27 19:29N 49°28' E 000°15'0 0.0
2018-Jan-27 18:59N 49°28' E 000°15'0 0.0
2018-Jan-27 18:29N 49°28' E 000°15'0 0.0
2018-Jan-27 17:59N 49°28' E 000°15'0 0.0
2018-Jan-27 17:29N 49°28' E 000°15'0 0.0
2018-Jan-27 16:59N 49°28' E 000°15'0 0.0
2018-Jan-27 16:29N 49°28' E 000°15'0 0.0
2018-Jan-27 15:59N 49°28' E 000°15'0 0.0
2018-Jan-27 15:29N 49°28' E 000°15'0 0.0
2018-Jan-27 14:59N 49°28' E 000°15'0 0.0
2018-Jan-27 14:29N 49°28' E 000°15'0 0.0
2018-Jan-27 13:59N 49°28' E 000°15'0 0.0
2018-Jan-27 13:29N 49°28' E 000°15'0 0.0
2018-Jan-27 12:59N 49°28' E 000°15'0 0.0
2018-Jan-27 12:29N 49°28' E 000°15'0 0.0
2018-Jan-27 11:59N 49°28' E 000°15'0 0.0
2018-Jan-27 11:29N 49°28' E 000°15'0 0.0
2018-Jan-27 10:59N 49°28' E 000°15'0 0.0
2018-Jan-27 10:29N 49°28' E 000°15'0 0.0
2018-Jan-27 09:59N 49°28' E 000°15'0 0.0
2018-Jan-27 09:29N 49°28' E 000°15'0 0.0
2018-Jan-27 08:59N 49°28' E 000°15'0 0.0
2018-Jan-27 08:29N 49°28' E 000°15'0 0.0
2018-Jan-27 07:59N 49°28' E 000°15'0 0.0
2018-Jan-27 07:29N 49°28' E 000°15'0 0.0
2018-Jan-27 06:59N 49°28' E 000°15'0 0.0
2018-Jan-27 06:29N 49°28' E 000°15'0 0.0
2018-Jan-27 05:59N 49°28' E 000°15'0 0.0
2018-Jan-27 05:29N 49°28' E 000°15'0 0.0
2018-Jan-27 04:59N 49°28' E 000°15'0 0.0
2018-Jan-27 04:29N 49°28' E 000°15'  

Dump ship's entire track history